sensor_id;sensor_type;location;lat;lon;timestamp;P1;durP1;ratioP1;P2;durP2;ratioP2
13485;SDS011;6815;59.336;17.998;2023-07-24T00:00:37;5.00;;;2.25;;
13485;SDS011;6815;59.336;17.998;2023-07-24T00:03:05;5.68;;;2.40;;
13485;SDS011;6815;59.336;17.998;2023-07-24T00:05:30;3.63;;;2.13;;
13485;SDS011;6815;59.336;17.998;2023-07-24T00:07:56;3.20;;;2.08;;
13485;SDS011;6815;59.336;17.998;2023-07-24T00:10:21;5.25;;;2.35;;
13485;SDS011;6815;59.336;17.998;2023-07-24T00:12:47;3.00;;;2.13;;
13485;SDS011;6815;59.336;17.998;2023-07-24T00:15:12;4.50;;;2.13;;
13485;SDS011;6815;59.336;17.998;2023-07-24T00:17:38;3.30;;;2.20;;
13485;SDS011;6815;59.336;17.998;2023-07-24T00:20:03;3.20;;;2.13;;
13485;SDS011;6815;59.336;17.998;2023-07-24T00:22:29;4.13;;;2.20;;
13485;SDS011;6815;59.336;17.998;2023-07-24T00:24:54;2.50;;;2.17;;
13485;SDS011;6815;59.336;17.998;2023-07-24T00:27:20;4.35;;;2.30;;
13485;SDS011;6815;59.336;17.998;2023-07-24T00:29:45;3.05;;;1.95;;
13485;SDS011;6815;59.336;17.998;2023-07-24T00:32:11;5.32;;;2.17;;
13485;SDS011;6815;59.336;17.998;2023-07-24T00:34:36;3.25;;;2.25;;
13485;SDS011;6815;59.336;17.998;2023-07-24T00:37:02;4.43;;;2.22;;
13485;SDS011;6815;59.336;17.998;2023-07-24T00:39:28;3.13;;;2.15;;
13485;SDS011;6815;59.336;17.998;2023-07-24T00:41:54;3.47;;;2.08;;
13485;SDS011;6815;59.336;17.998;2023-07-24T00:44:20;4.43;;;2.30;;
13485;SDS011;6815;59.336;17.998;2023-07-24T00:46:45;5.97;;;2.60;;
13485;SDS011;6815;59.336;17.998;2023-07-24T00:49:11;4.32;;;2.50;;
13485;SDS011;6815;59.336;17.998;2023-07-24T00:51:37;4.40;;;2.35;;
13485;SDS011;6815;59.336;17.998;2023-07-24T00:54:03;5.60;;;2.30;;
13485;SDS011;6815;59.336;17.998;2023-07-24T00:56:31;4.80;;;2.55;;
13485;SDS011;6815;59.336;17.998;2023-07-24T00:58:57;4.72;;;2.28;;
13485;SDS011;6815;59.336;17.998;2023-07-24T01:01:23;5.03;;;2.53;;
13485;SDS011;6815;59.336;17.998;2023-07-24T01:03:49;3.65;;;2.20;;
13485;SDS011;6815;59.336;17.998;2023-07-24T01:06:15;4.60;;;2.50;;
13485;SDS011;6815;59.336;17.998;2023-07-24T01:08:41;4.03;;;2.63;;
13485;SDS011;6815;59.336;17.998;2023-07-24T01:11:12;4.75;;;2.72;;
13485;SDS011;6815;59.336;17.998;2023-07-24T01:13:44;3.78;;;2.50;;
13485;SDS011;6815;59.336;17.998;2023-07-24T01:16:21;4.57;;;2.70;;
13485;SDS011;6815;59.336;17.998;2023-07-24T01:18:48;5.55;;;2.72;;
13485;SDS011;6815;59.336;17.998;2023-07-24T01:21:16;4.15;;;2.50;;
13485;SDS011;6815;59.336;17.998;2023-07-24T01:23:55;2.67;;;2.00;;
13485;SDS011;6815;59.336;17.998;2023-07-24T01:26:28;4.47;;;2.58;;
13485;SDS011;6815;59.336;17.998;2023-07-24T01:28:54;5.45;;;2.38;;
13485;SDS011;6815;59.336;17.998;2023-07-24T01:31:19;5.70;;;2.83;;
13485;SDS011;6815;59.336;17.998;2023-07-24T01:33:44;3.35;;;2.30;;
13485;SDS011;6815;59.336;17.998;2023-07-24T01:36:10;3.15;;;2.03;;
13485;SDS011;6815;59.336;17.998;2023-07-24T01:38:39;2.88;;;2.40;;
13485;SDS011;6815;59.336;17.998;2023-07-24T01:41:06;5.72;;;2.63;;
13485;SDS011;6815;59.336;17.998;2023-07-24T01:43:32;3.25;;;2.75;;
13485;SDS011;6815;59.336;17.998;2023-07-24T01:45:59;3.47;;;2.65;;
13485;SDS011;6815;59.336;17.998;2023-07-24T01:48:24;5.35;;;2.70;;
13485;SDS011;6815;59.336;17.998;2023-07-24T01:50:50;4.63;;;2.60;;
13485;SDS011;6815;59.336;17.998;2023-07-24T01:53:15;4.35;;;2.78;;
13485;SDS011;6815;59.336;17.998;2023-07-24T01:55:41;3.17;;;2.50;;
13485;SDS011;6815;59.336;17.998;2023-07-24T01:58:06;4.15;;;2.85;;
13485;SDS011;6815;59.336;17.998;2023-07-24T02:00:32;5.47;;;3.17;;
13485;SDS011;6815;59.336;17.998;2023-07-24T02:02:57;7.25;;;2.88;;
13485;SDS011;6815;59.336;17.998;2023-07-24T02:05:23;3.92;;;2.88;;
13485;SDS011;6815;59.336;17.998;2023-07-24T02:07:48;4.63;;;3.20;;
13485;SDS011;6815;59.336;17.998;2023-07-24T02:10:13;7.60;;;3.28;;
13485;SDS011;6815;59.336;17.998;2023-07-24T02:12:39;4.43;;;3.15;;
13485;SDS011;6815;59.336;17.998;2023-07-24T02:15:05;3.80;;;3.08;;
13485;SDS011;6815;59.336;17.998;2023-07-24T02:17:31;2.97;;;2.53;;
13485;SDS011;6815;59.336;17.998;2023-07-24T02:19:56;4.25;;;2.83;;
13485;SDS011;6815;59.336;17.998;2023-07-24T02:22:22;4.00;;;2.50;;
13485;SDS011;6815;59.336;17.998;2023-07-24T02:24:47;3.72;;;2.70;;
13485;SDS011;6815;59.336;17.998;2023-07-24T02:27:13;4.38;;;2.83;;
13485;SDS011;6815;59.336;17.998;2023-07-24T02:29:49;4.75;;;3.03;;
13485;SDS011;6815;59.336;17.998;2023-07-24T02:32:14;3.90;;;2.63;;
13485;SDS011;6815;59.336;17.998;2023-07-24T02:34:40;4.25;;;2.75;;
13485;SDS011;6815;59.336;17.998;2023-07-24T02:37:05;5.07;;;2.72;;
13485;SDS011;6815;59.336;17.998;2023-07-24T02:39:31;4.10;;;2.78;;
13485;SDS011;6815;59.336;17.998;2023-07-24T02:41:56;3.42;;;2.30;;
13485;SDS011;6815;59.336;17.998;2023-07-24T02:44:21;4.75;;;2.85;;
13485;SDS011;6815;59.336;17.998;2023-07-24T02:46:47;5.65;;;3.22;;
13485;SDS011;6815;59.336;17.998;2023-07-24T02:49:12;4.30;;;2.47;;
13485;SDS011;6815;59.336;17.998;2023-07-24T02:51:37;4.80;;;2.78;;
13485;SDS011;6815;59.336;17.998;2023-07-24T02:54:03;4.53;;;2.92;;
13485;SDS011;6815;59.336;17.998;2023-07-24T02:56:28;4.68;;;2.85;;
13485;SDS011;6815;59.336;17.998;2023-07-24T02:58:54;3.80;;;2.70;;
13485;SDS011;6815;59.336;17.998;2023-07-24T03:01:19;4.15;;;2.83;;
13485;SDS011;6815;59.336;17.998;2023-07-24T03:03:45;5.00;;;2.92;;
13485;SDS011;6815;59.336;17.998;2023-07-24T03:06:10;4.18;;;2.80;;
13485;SDS011;6815;59.336;17.998;2023-07-24T03:08:35;3.80;;;2.75;;
13485;SDS011;6815;59.336;17.998;2023-07-24T03:11:04;3.05;;;2.58;;
13485;SDS011;6815;59.336;17.998;2023-07-24T03:13:30;4.15;;;2.50;;
13485;SDS011;6815;59.336;17.998;2023-07-24T03:15:56;3.28;;;2.95;;
13485;SDS011;6815;59.336;17.998;2023-07-24T03:18:22;4.93;;;2.70;;
13485;SDS011;6815;59.336;17.998;2023-07-24T03:20:48;3.97;;;2.88;;
13485;SDS011;6815;59.336;17.998;2023-07-24T03:23:13;7.50;;;2.88;;
13485;SDS011;6815;59.336;17.998;2023-07-24T03:25:39;4.70;;;2.80;;
13485;SDS011;6815;59.336;17.998;2023-07-24T03:28:04;4.63;;;2.80;;
13485;SDS011;6815;59.336;17.998;2023-07-24T03:30:30;6.13;;;2.85;;
13485;SDS011;6815;59.336;17.998;2023-07-24T03:32:56;4.03;;;2.47;;
13485;SDS011;6815;59.336;17.998;2023-07-24T03:35:22;4.93;;;3.13;;
13485;SDS011;6815;59.336;17.998;2023-07-24T03:37:48;6.10;;;2.70;;
13485;SDS011;6815;59.336;17.998;2023-07-24T03:40:13;5.45;;;2.90;;
13485;SDS011;6815;59.336;17.998;2023-07-24T03:42:40;8.82;;;2.90;;
13485;SDS011;6815;59.336;17.998;2023-07-24T03:45:06;3.30;;;3.00;;
13485;SDS011;6815;59.336;17.998;2023-07-24T03:47:32;4.03;;;3.20;;
13485;SDS011;6815;59.336;17.998;2023-07-24T03:49:58;5.55;;;3.03;;
13485;SDS011;6815;59.336;17.998;2023-07-24T03:52:23;3.72;;;2.90;;
13485;SDS011;6815;59.336;17.998;2023-07-24T03:54:48;4.05;;;3.28;;
13485;SDS011;6815;59.336;17.998;2023-07-24T03:57:14;5.13;;;3.15;;
13485;SDS011;6815;59.336;17.998;2023-07-24T03:59:39;5.65;;;3.10;;
13485;SDS011;6815;59.336;17.998;2023-07-24T04:02:05;5.72;;;3.70;;
13485;SDS011;6815;59.336;17.998;2023-07-24T04:04:31;6.57;;;3.60;;
13485;SDS011;6815;59.336;17.998;2023-07-24T04:06:56;5.75;;;3.85;;
13485;SDS011;6815;59.336;17.998;2023-07-24T04:09:22;6.95;;;4.10;;
13485;SDS011;6815;59.336;17.998;2023-07-24T04:11:47;6.57;;;3.78;;
13485;SDS011;6815;59.336;17.998;2023-07-24T04:14:12;5.28;;;3.85;;
13485;SDS011;6815;59.336;17.998;2023-07-24T04:16:38;4.45;;;3.72;;
13485;SDS011;6815;59.336;17.998;2023-07-24T04:19:03;5.78;;;5.18;;
13485;SDS011;6815;59.336;17.998;2023-07-24T04:21:29;8.30;;;5.70;;
13485;SDS011;6815;59.336;17.998;2023-07-24T04:23:54;8.60;;;6.38;;
13485;SDS011;6815;59.336;17.998;2023-07-24T04:26:19;8.98;;;6.32;;
13485;SDS011;6815;59.336;17.998;2023-07-24T04:28:45;11.73;;;8.05;;
13485;SDS011;6815;59.336;17.998;2023-07-24T04:31:10;12.52;;;8.23;;
13485;SDS011;6815;59.336;17.998;2023-07-24T04:33:36;9.98;;;7.65;;
13485;SDS011;6815;59.336;17.998;2023-07-24T04:36:01;10.68;;;7.25;;
13485;SDS011;6815;59.336;17.998;2023-07-24T04:38:26;10.95;;;7.47;;
13485;SDS011;6815;59.336;17.998;2023-07-24T04:40:52;10.70;;;7.47;;
13485;SDS011;6815;59.336;17.998;2023-07-24T04:43:18;8.48;;;6.13;;
13485;SDS011;6815;59.336;17.998;2023-07-24T04:45:43;8.88;;;6.88;;
13485;SDS011;6815;59.336;17.998;2023-07-24T04:48:08;7.63;;;5.80;;
13485;SDS011;6815;59.336;17.998;2023-07-24T04:50:34;7.38;;;5.72;;
13485;SDS011;6815;59.336;17.998;2023-07-24T04:52:59;10.50;;;6.75;;
13485;SDS011;6815;59.336;17.998;2023-07-24T04:55:25;7.90;;;6.00;;
13485;SDS011;6815;59.336;17.998;2023-07-24T04:57:51;10.73;;;6.13;;
13485;SDS011;6815;59.336;17.998;2023-07-24T05:00:17;8.23;;;5.97;;
13485;SDS011;6815;59.336;17.998;2023-07-24T05:02:42;8.00;;;6.05;;
13485;SDS011;6815;59.336;17.998;2023-07-24T05:05:08;8.70;;;6.10;;
13485;SDS011;6815;59.336;17.998;2023-07-24T05:07:35;7.03;;;5.55;;
13485;SDS011;6815;59.336;17.998;2023-07-24T05:10:01;6.65;;;5.50;;
13485;SDS011;6815;59.336;17.998;2023-07-24T05:12:27;9.13;;;4.90;;
13485;SDS011;6815;59.336;17.998;2023-07-24T05:14:52;8.38;;;5.05;;
13485;SDS011;6815;59.336;17.998;2023-07-24T05:17:19;5.50;;;5.00;;
13485;SDS011;6815;59.336;17.998;2023-07-24T05:19:44;5.47;;;4.35;;
13485;SDS011;6815;59.336;17.998;2023-07-24T05:22:09;6.07;;;4.72;;
13485;SDS011;6815;59.336;17.998;2023-07-24T05:24:36;7.53;;;4.80;;
13485;SDS011;6815;59.336;17.998;2023-07-24T05:27:02;7.13;;;4.82;;
13485;SDS011;6815;59.336;17.998;2023-07-24T05:29:28;5.47;;;4.03;;
13485;SDS011;6815;59.336;17.998;2023-07-24T05:31:53;5.25;;;3.85;;
13485;SDS011;6815;59.336;17.998;2023-07-24T05:34:19;4.22;;;3.20;;
13485;SDS011;6815;59.336;17.998;2023-07-24T05:36:45;5.10;;;3.45;;
13485;SDS011;6815;59.336;17.998;2023-07-24T05:39:10;3.72;;;2.60;;
13485;SDS011;6815;59.336;17.998;2023-07-24T05:41:35;4.38;;;3.10;;
13485;SDS011;6815;59.336;17.998;2023-07-24T05:44:01;4.85;;;3.50;;
13485;SDS011;6815;59.336;17.998;2023-07-24T05:46:26;5.63;;;3.13;;
13485;SDS011;6815;59.336;17.998;2023-07-24T05:48:52;4.43;;;2.95;;
13485;SDS011;6815;59.336;17.998;2023-07-24T05:51:17;4.05;;;2.72;;
13485;SDS011;6815;59.336;17.998;2023-07-24T05:53:43;6.80;;;3.28;;
13485;SDS011;6815;59.336;17.998;2023-07-24T05:56:08;6.25;;;3.30;;
13485;SDS011;6815;59.336;17.998;2023-07-24T05:58:33;4.00;;;2.88;;
13485;SDS011;6815;59.336;17.998;2023-07-24T06:01:00;3.72;;;2.70;;
13485;SDS011;6815;59.336;17.998;2023-07-24T06:03:25;4.75;;;3.00;;
13485;SDS011;6815;59.336;17.998;2023-07-24T06:05:51;3.75;;;2.65;;
13485;SDS011;6815;59.336;17.998;2023-07-24T06:08:20;4.45;;;3.17;;
13485;SDS011;6815;59.336;17.998;2023-07-24T06:10:47;5.25;;;2.72;;
13485;SDS011;6815;59.336;17.998;2023-07-24T06:13:13;5.18;;;2.75;;
13485;SDS011;6815;59.336;17.998;2023-07-24T06:15:39;5.00;;;2.70;;
13485;SDS011;6815;59.336;17.998;2023-07-24T06:18:05;3.95;;;2.40;;
13485;SDS011;6815;59.336;17.998;2023-07-24T06:20:30;7.88;;;2.78;;
13485;SDS011;6815;59.336;17.998;2023-07-24T06:22:56;7.55;;;2.40;;
13485;SDS011;6815;59.336;17.998;2023-07-24T06:25:21;3.22;;;1.92;;
13485;SDS011;6815;59.336;17.998;2023-07-24T06:27:46;3.15;;;2.00;;
13485;SDS011;6815;59.336;17.998;2023-07-24T06:30:12;3.58;;;2.28;;
13485;SDS011;6815;59.336;17.998;2023-07-24T06:32:38;2.92;;;2.30;;
13485;SDS011;6815;59.336;17.998;2023-07-24T06:35:03;3.97;;;2.08;;
13485;SDS011;6815;59.336;17.998;2023-07-24T06:37:29;4.00;;;2.50;;
13485;SDS011;6815;59.336;17.998;2023-07-24T06:39:54;5.63;;;2.40;;
13485;SDS011;6815;59.336;17.998;2023-07-24T06:42:20;4.53;;;2.20;;
13485;SDS011;6815;59.336;17.998;2023-07-24T06:44:45;3.47;;;1.83;;
13485;SDS011;6815;59.336;17.998;2023-07-24T06:47:10;3.13;;;2.10;;
13485;SDS011;6815;59.336;17.998;2023-07-24T06:49:36;1.88;;;1.63;;
13485;SDS011;6815;59.336;17.998;2023-07-24T06:52:01;2.47;;;2.25;;
13485;SDS011;6815;59.336;17.998;2023-07-24T06:54:27;3.90;;;1.95;;
13485;SDS011;6815;59.336;17.998;2023-07-24T06:56:52;6.25;;;2.30;;
13485;SDS011;6815;59.336;17.998;2023-07-24T06:59:18;4.35;;;2.00;;
13485;SDS011;6815;59.336;17.998;2023-07-24T07:01:43;3.38;;;1.80;;
13485;SDS011;6815;59.336;17.998;2023-07-24T07:04:09;1.77;;;1.50;;
13485;SDS011;6815;59.336;17.998;2023-07-24T07:06:34;2.47;;;1.70;;
13485;SDS011;6815;59.336;17.998;2023-07-24T07:08:59;6.93;;;1.98;;
13485;SDS011;6815;59.336;17.998;2023-07-24T07:11:25;2.47;;;1.45;;
13485;SDS011;6815;59.336;17.998;2023-07-24T07:13:50;2.80;;;1.60;;
13485;SDS011;6815;59.336;17.998;2023-07-24T07:16:16;2.05;;;1.52;;
13485;SDS011;6815;59.336;17.998;2023-07-24T07:18:43;2.10;;;1.50;;
13485;SDS011;6815;59.336;17.998;2023-07-24T07:21:09;1.58;;;1.30;;
13485;SDS011;6815;59.336;17.998;2023-07-24T07:23:34;2.28;;;1.45;;
13485;SDS011;6815;59.336;17.998;2023-07-24T07:26:00;2.58;;;1.25;;
13485;SDS011;6815;59.336;17.998;2023-07-24T07:28:25;1.95;;;1.30;;
13485;SDS011;6815;59.336;17.998;2023-07-24T07:30:51;2.97;;;1.50;;
13485;SDS011;6815;59.336;17.998;2023-07-24T07:33:16;1.42;;;1.27;;
13485;SDS011;6815;59.336;17.998;2023-07-24T07:35:42;3.72;;;1.60;;
13485;SDS011;6815;59.336;17.998;2023-07-24T07:38:07;1.80;;;1.50;;
13485;SDS011;6815;59.336;17.998;2023-07-24T07:40:36;1.90;;;1.40;;
13485;SDS011;6815;59.336;17.998;2023-07-24T07:43:02;2.22;;;1.50;;
13485;SDS011;6815;59.336;17.998;2023-07-24T07:45:28;3.42;;;1.90;;
13485;SDS011;6815;59.336;17.998;2023-07-24T07:47:53;3.28;;;1.50;;
13485;SDS011;6815;59.336;17.998;2023-07-24T07:50:19;1.90;;;1.58;;
13485;SDS011;6815;59.336;17.998;2023-07-24T07:52:45;1.38;;;1.23;;
13485;SDS011;6815;59.336;17.998;2023-07-24T07:55:10;1.45;;;1.27;;
13485;SDS011;6815;59.336;17.998;2023-07-24T07:57:36;2.20;;;1.23;;
13485;SDS011;6815;59.336;17.998;2023-07-24T08:00:02;1.90;;;1.40;;
13485;SDS011;6815;59.336;17.998;2023-07-24T08:02:29;1.70;;;1.35;;
13485;SDS011;6815;59.336;17.998;2023-07-24T08:04:55;1.98;;;1.50;;
13485;SDS011;6815;59.336;17.998;2023-07-24T08:07:20;3.60;;;1.50;;
13485;SDS011;6815;59.336;17.998;2023-07-24T08:09:46;1.95;;;1.40;;
13485;SDS011;6815;59.336;17.998;2023-07-24T08:12:11;1.45;;;1.20;;
13485;SDS011;6815;59.336;17.998;2023-07-24T08:14:37;1.40;;;1.20;;
13485;SDS011;6815;59.336;17.998;2023-07-24T08:17:02;2.28;;;1.17;;
13485;SDS011;6815;59.336;17.998;2023-07-24T08:19:28;2.22;;;1.45;;
13485;SDS011;6815;59.336;17.998;2023-07-24T08:21:54;1.92;;;1.50;;
13485;SDS011;6815;59.336;17.998;2023-07-24T08:24:19;2.25;;;1.67;;
13485;SDS011;6815;59.336;17.998;2023-07-24T08:26:45;2.72;;;1.33;;
13485;SDS011;6815;59.336;17.998;2023-07-24T08:29:10;2.72;;;1.55;;
13485;SDS011;6815;59.336;17.998;2023-07-24T08:31:36;1.73;;;1.50;;
13485;SDS011;6815;59.336;17.998;2023-07-24T08:34:01;2.20;;;1.40;;
13485;SDS011;6815;59.336;17.998;2023-07-24T08:36:28;2.75;;;1.60;;
13485;SDS011;6815;59.336;17.998;2023-07-24T08:38:54;2.33;;;1.42;;
13485;SDS011;6815;59.336;17.998;2023-07-24T08:41:19;2.72;;;1.50;;
13485;SDS011;6815;59.336;17.998;2023-07-24T08:43:44;2.33;;;1.70;;
13485;SDS011;6815;59.336;17.998;2023-07-24T08:46:10;2.13;;;1.40;;
13485;SDS011;6815;59.336;17.998;2023-07-24T08:48:37;3.83;;;1.30;;
13485;SDS011;6815;59.336;17.998;2023-07-24T08:53:34;1.65;;;1.13;;
13485;SDS011;6815;59.336;17.998;2023-07-24T08:56:02;2.00;;;1.42;;
13485;SDS011;6815;59.336;17.998;2023-07-24T08:58:31;2.63;;;1.50;;
13485;SDS011;6815;59.336;17.998;2023-07-24T09:00:57;3.53;;;2.05;;
13485;SDS011;6815;59.336;17.998;2023-07-24T09:03:23;4.93;;;1.85;;
13485;SDS011;6815;59.336;17.998;2023-07-24T09:05:49;1.58;;;1.25;;
13485;SDS011;6815;59.336;17.998;2023-07-24T09:08:15;2.10;;;1.45;;
13485;SDS011;6815;59.336;17.998;2023-07-24T09:10:40;1.38;;;1.20;;
13485;SDS011;6815;59.336;17.998;2023-07-24T09:13:06;3.25;;;1.15;;
13485;SDS011;6815;59.336;17.998;2023-07-24T09:15:41;2.83;;;1.75;;
13485;SDS011;6815;59.336;17.998;2023-07-24T09:18:08;3.55;;;1.38;;
13485;SDS011;6815;59.336;17.998;2023-07-24T09:20:38;2.50;;;0.93;;
13485;SDS011;6815;59.336;17.998;2023-07-24T09:23:05;2.28;;;1.20;;
13485;SDS011;6815;59.336;17.998;2023-07-24T09:25:32;1.15;;;0.90;;
13485;SDS011;6815;59.336;17.998;2023-07-24T09:27:59;1.10;;;0.95;;
13485;SDS011;6815;59.336;17.998;2023-07-24T09:30:24;1.17;;;1.08;;
13485;SDS011;6815;59.336;17.998;2023-07-24T09:32:54;3.38;;;1.20;;
13485;SDS011;6815;59.336;17.998;2023-07-24T09:35:19;1.33;;;1.00;;
13485;SDS011;6815;59.336;17.998;2023-07-24T09:37:47;1.10;;;1.00;;
13485;SDS011;6815;59.336;17.998;2023-07-24T09:40:14;1.73;;;1.00;;
13485;SDS011;6815;59.336;17.998;2023-07-24T09:42:40;1.27;;;0.80;;
13485;SDS011;6815;59.336;17.998;2023-07-24T09:45:06;1.42;;;1.08;;
13485;SDS011;6815;59.336;17.998;2023-07-24T09:47:33;2.92;;;1.30;;
13485;SDS011;6815;59.336;17.998;2023-07-24T09:50:00;2.53;;;1.35;;
13485;SDS011;6815;59.336;17.998;2023-07-24T09:52:29;2.25;;;1.17;;
13485;SDS011;6815;59.336;17.998;2023-07-24T09:57:32;3.33;;;1.58;;
13485;SDS011;6815;59.336;17.998;2023-07-24T09:59:59;3.08;;;1.58;;
13485;SDS011;6815;59.336;17.998;2023-07-24T10:02:26;5.50;;;2.97;;
13485;SDS011;6815;59.336;17.998;2023-07-24T10:04:52;4.50;;;2.17;;
13485;SDS011;6815;59.336;17.998;2023-07-24T10:07:18;1.60;;;1.08;;
13485;SDS011;6815;59.336;17.998;2023-07-24T10:09:46;3.03;;;1.70;;
13485;SDS011;6815;59.336;17.998;2023-07-24T10:12:13;1.55;;;1.13;;
13485;SDS011;6815;59.336;17.998;2023-07-24T10:14:38;1.52;;;1.20;;
13485;SDS011;6815;59.336;17.998;2023-07-24T10:17:04;2.95;;;1.27;;
13485;SDS011;6815;59.336;17.998;2023-07-24T10:19:38;1.42;;;1.08;;
13485;SDS011;6815;59.336;17.998;2023-07-24T10:22:04;2.30;;;1.42;;
13485;SDS011;6815;59.336;17.998;2023-07-24T10:24:30;3.22;;;1.30;;
13485;SDS011;6815;59.336;17.998;2023-07-24T10:26:56;1.35;;;1.20;;
13485;SDS011;6815;59.336;17.998;2023-07-24T10:29:23;1.55;;;1.20;;
13485;SDS011;6815;59.336;17.998;2023-07-24T10:31:52;2.03;;;1.35;;
13485;SDS011;6815;59.336;17.998;2023-07-24T10:34:19;1.27;;;1.17;;
13485;SDS011;6815;59.336;17.998;2023-07-24T10:36:45;1.60;;;1.48;;
13485;SDS011;6815;59.336;17.998;2023-07-24T10:39:14;2.45;;;1.67;;
13485;SDS011;6815;59.336;17.998;2023-07-24T10:41:40;2.58;;;1.60;;
13485;SDS011;6815;59.336;17.998;2023-07-24T10:44:06;2.75;;;1.98;;
13485;SDS011;6815;59.336;17.998;2023-07-24T10:46:41;2.65;;;1.27;;
13485;SDS011;6815;59.336;17.998;2023-07-24T10:49:08;1.80;;;1.30;;
13485;SDS011;6815;59.336;17.998;2023-07-24T10:51:34;1.83;;;1.30;;
13485;SDS011;6815;59.336;17.998;2023-07-24T10:54:02;2.83;;;1.27;;
13485;SDS011;6815;59.336;17.998;2023-07-24T10:56:28;1.98;;;1.30;;
13485;SDS011;6815;59.336;17.998;2023-07-24T10:58:54;1.83;;;1.30;;
13485;SDS011;6815;59.336;17.998;2023-07-24T11:01:19;2.40;;;1.05;;
13485;SDS011;6815;59.336;17.998;2023-07-24T11:03:45;2.40;;;1.20;;
13485;SDS011;6815;59.336;17.998;2023-07-24T11:06:15;1.90;;;1.20;;
13485;SDS011;6815;59.336;17.998;2023-07-24T11:08:41;4.57;;;1.75;;
13485;SDS011;6815;59.336;17.998;2023-07-24T11:11:07;1.98;;;1.33;;
13485;SDS011;6815;59.336;17.998;2023-07-24T11:13:33;3.08;;;1.40;;
13485;SDS011;6815;59.336;17.998;2023-07-24T11:16:03;3.70;;;1.55;;
13485;SDS011;6815;59.336;17.998;2023-07-24T11:18:30;1.33;;;1.00;;
13485;SDS011;6815;59.336;17.998;2023-07-24T11:20:56;2.95;;;1.33;;
13485;SDS011;6815;59.336;17.998;2023-07-24T11:23:22;1.55;;;1.30;;
13485;SDS011;6815;59.336;17.998;2023-07-24T11:25:52;1.67;;;1.23;;
13485;SDS011;6815;59.336;17.998;2023-07-24T11:28:19;2.78;;;1.15;;
13485;SDS011;6815;59.336;17.998;2023-07-24T11:30:44;1.40;;;1.30;;
13485;SDS011;6815;59.336;17.998;2023-07-24T11:33:11;3.97;;;1.50;;
13485;SDS011;6815;59.336;17.998;2023-07-24T11:35:37;2.97;;;1.20;;
13485;SDS011;6815;59.336;17.998;2023-07-24T11:38:04;2.75;;;1.40;;
13485;SDS011;6815;59.336;17.998;2023-07-24T11:40:35;3.28;;;1.40;;
13485;SDS011;6815;59.336;17.998;2023-07-24T11:43:17;3.58;;;1.25;;
13485;SDS011;6815;59.336;17.998;2023-07-24T11:45:44;1.77;;;1.10;;
13485;SDS011;6815;59.336;17.998;2023-07-24T11:48:12;3.00;;;1.35;;
13485;SDS011;6815;59.336;17.998;2023-07-24T11:50:45;2.42;;;1.30;;
13485;SDS011;6815;59.336;17.998;2023-07-24T11:53:28;1.88;;;1.23;;
13485;SDS011;6815;59.336;17.998;2023-07-24T11:55:57;1.50;;;1.40;;
13485;SDS011;6815;59.336;17.998;2023-07-24T11:58:28;2.13;;;1.30;;
13485;SDS011;6815;59.336;17.998;2023-07-24T12:00:55;2.03;;;1.30;;
13485;SDS011;6815;59.336;17.998;2023-07-24T12:03:22;2.20;;;1.30;;
13485;SDS011;6815;59.336;17.998;2023-07-24T12:05:49;3.50;;;1.10;;
13485;SDS011;6815;59.336;17.998;2023-07-24T12:08:16;1.83;;;1.42;;
13485;SDS011;6815;59.336;17.998;2023-07-24T12:10:42;1.60;;;1.20;;
13485;SDS011;6815;59.336;17.998;2023-07-24T12:13:08;2.22;;;1.10;;
13485;SDS011;6815;59.336;17.998;2023-07-24T12:15:34;3.28;;;1.38;;
13485;SDS011;6815;59.336;17.998;2023-07-24T12:18:00;1.65;;;1.20;;
13485;SDS011;6815;59.336;17.998;2023-07-24T12:20:29;1.35;;;1.20;;
13485;SDS011;6815;59.336;17.998;2023-07-24T12:22:55;1.00;;;0.90;;
13485;SDS011;6815;59.336;17.998;2023-07-24T12:25:21;1.33;;;1.17;;
13485;SDS011;6815;59.336;17.998;2023-07-24T12:27:47;1.85;;;1.00;;
13485;SDS011;6815;59.336;17.998;2023-07-24T12:30:13;1.20;;;1.02;;
13485;SDS011;6815;59.336;17.998;2023-07-24T12:32:39;1.63;;;1.17;;
13485;SDS011;6815;59.336;17.998;2023-07-24T12:35:04;1.23;;;0.93;;
13485;SDS011;6815;59.336;17.998;2023-07-24T12:37:30;1.38;;;1.00;;
13485;SDS011;6815;59.336;17.998;2023-07-24T12:39:56;2.45;;;0.82;;
13485;SDS011;6815;59.336;17.998;2023-07-24T12:42:22;1.30;;;1.00;;
13485;SDS011;6815;59.336;17.998;2023-07-24T12:44:48;1.50;;;0.80;;
13485;SDS011;6815;59.336;17.998;2023-07-24T12:47:14;2.00;;;0.95;;
13485;SDS011;6815;59.336;17.998;2023-07-24T12:49:39;2.28;;;1.13;;
13485;SDS011;6815;59.336;17.998;2023-07-24T12:52:04;1.23;;;0.90;;
13485;SDS011;6815;59.336;17.998;2023-07-24T12:54:31;1.00;;;0.90;;
13485;SDS011;6815;59.336;17.998;2023-07-24T12:56:56;0.93;;;0.73;;
13485;SDS011;6815;59.336;17.998;2023-07-24T12:59:22;0.60;;;0.60;;
13485;SDS011;6815;59.336;17.998;2023-07-24T13:01:47;1.10;;;0.80;;
13485;SDS011;6815;59.336;17.998;2023-07-24T13:04:13;1.67;;;0.60;;
13485;SDS011;6815;59.336;17.998;2023-07-24T13:06:38;1.45;;;0.68;;
13485;SDS011;6815;59.336;17.998;2023-07-24T13:09:04;0.75;;;0.70;;
13485;SDS011;6815;59.336;17.998;2023-07-24T13:11:30;1.58;;;0.65;;
13485;SDS011;6815;59.336;17.998;2023-07-24T13:13:56;1.70;;;0.80;;
13485;SDS011;6815;59.336;17.998;2023-07-24T13:16:22;1.95;;;1.02;;
13485;SDS011;6815;59.336;17.998;2023-07-24T13:18:48;1.30;;;0.63;;
13485;SDS011;6815;59.336;17.998;2023-07-24T13:21:13;1.08;;;0.75;;
13485;SDS011;6815;59.336;17.998;2023-07-24T13:23:39;0.95;;;0.77;;
13485;SDS011;6815;59.336;17.998;2023-07-24T13:26:05;2.13;;;0.68;;
13485;SDS011;6815;59.336;17.998;2023-07-24T13:28:30;2.03;;;0.80;;
13485;SDS011;6815;59.336;17.998;2023-07-24T13:30:55;1.90;;;0.70;;
13485;SDS011;6815;59.336;17.998;2023-07-24T13:33:21;2.13;;;0.90;;
13485;SDS011;6815;59.336;17.998;2023-07-24T13:35:47;2.95;;;1.13;;
13485;SDS011;6815;59.336;17.998;2023-07-24T13:38:13;0.65;;;0.65;;
13485;SDS011;6815;59.336;17.998;2023-07-24T13:40:39;1.27;;;0.80;;
13485;SDS011;6815;59.336;17.998;2023-07-24T13:43:05;1.35;;;0.73;;
13485;SDS011;6815;59.336;17.998;2023-07-24T13:45:30;1.25;;;0.70;;
13485;SDS011;6815;59.336;17.998;2023-07-24T13:47:56;1.75;;;1.13;;
13485;SDS011;6815;59.336;17.998;2023-07-24T13:50:22;1.25;;;0.95;;
13485;SDS011;6815;59.336;17.998;2023-07-24T13:52:48;1.80;;;0.80;;
13485;SDS011;6815;59.336;17.998;2023-07-24T13:55:13;0.85;;;0.77;;
13485;SDS011;6815;59.336;17.998;2023-07-24T13:57:39;1.75;;;0.90;;
13485;SDS011;6815;59.336;17.998;2023-07-24T14:00:05;0.82;;;0.82;;
13485;SDS011;6815;59.336;17.998;2023-07-24T14:02:30;2.45;;;0.88;;
13485;SDS011;6815;59.336;17.998;2023-07-24T14:04:56;1.48;;;0.90;;
13485;SDS011;6815;59.336;17.998;2023-07-24T14:07:21;0.68;;;0.68;;
13485;SDS011;6815;59.336;17.998;2023-07-24T14:09:47;1.33;;;0.90;;
13485;SDS011;6815;59.336;17.998;2023-07-24T14:12:13;1.00;;;0.80;;
13485;SDS011;6815;59.336;17.998;2023-07-24T14:14:38;1.73;;;0.82;;
13485;SDS011;6815;59.336;17.998;2023-07-24T14:17:04;2.45;;;0.90;;
13485;SDS011;6815;59.336;17.998;2023-07-24T14:19:29;2.17;;;1.20;;
13485;SDS011;6815;59.336;17.998;2023-07-24T14:21:55;1.67;;;0.70;;
13485;SDS011;6815;59.336;17.998;2023-07-24T14:24:20;1.42;;;0.80;;
13485;SDS011;6815;59.336;17.998;2023-07-24T14:26:45;2.25;;;1.20;;
13485;SDS011;6815;59.336;17.998;2023-07-24T14:29:11;1.30;;;0.90;;
13485;SDS011;6815;59.336;17.998;2023-07-24T14:31:37;1.38;;;0.80;;
13485;SDS011;6815;59.336;17.998;2023-07-24T14:34:02;1.98;;;0.95;;
13485;SDS011;6815;59.336;17.998;2023-07-24T14:36:28;0.95;;;0.82;;
13485;SDS011;6815;59.336;17.998;2023-07-24T14:38:59;1.98;;;0.98;;
13485;SDS011;6815;59.336;17.998;2023-07-24T14:41:25;1.00;;;0.90;;
13485;SDS011;6815;59.336;17.998;2023-07-24T14:43:50;1.30;;;1.00;;
13485;SDS011;6815;59.336;17.998;2023-07-24T14:46:16;1.48;;;1.00;;